sensor_id;sensor_type;location;lat;lon;timestamp;pressure;altitude;pressure_sealevel;temperature;humidity
141;BME280;65;48.778;9.160;2022-10-30T00:00:52;98934.25;;;14.07;100.00
141;BME280;65;48.778;9.160;2022-10-30T00:03:20;98931.91;;;14.02;100.00
141;BME280;65;48.778;9.160;2022-10-30T00:05:47;98928.50;;;14.00;100.00
141;BME280;65;48.778;9.160;2022-10-30T00:08:15;98926.78;;;13.99;100.00
141;BME280;65;48.778;9.160;2022-10-30T00:10:41;98928.50;;;14.00;100.00
141;BME280;65;48.778;9.160;2022-10-30T00:13:08;98923.94;;;14.02;100.00
141;BME280;65;48.778;9.160;2022-10-30T00:15:33;98920.13;;;14.06;100.00
141;BME280;65;48.778;9.160;2022-10-30T00:17:58;98920.22;;;14.05;100.00
141;BME280;65;48.778;9.160;2022-10-30T00:20:24;98921.91;;;14.06;100.00
141;BME280;65;48.778;9.160;2022-10-30T00:22:49;98917.06;;;14.12;100.00
141;BME280;65;48.778;9.160;2022-10-30T00:25:21;98909.22;;;14.23;100.00
141;BME280;65;48.778;9.160;2022-10-30T00:27:46;98918.59;;;14.29;100.00
141;BME280;65;48.778;9.160;2022-10-30T00:30:12;98910.59;;;14.29;100.00
141;BME280;65;48.778;9.160;2022-10-30T00:32:51;98907.19;;;14.27;100.00
141;BME280;65;48.778;9.160;2022-10-30T00:35:17;98905.28;;;14.29;100.00
141;BME280;65;48.778;9.160;2022-10-30T00:37:42;98906.25;;;14.28;100.00
141;BME280;65;48.778;9.160;2022-10-30T00:40:13;98904.53;;;14.27;100.00
141;BME280;65;48.778;9.160;2022-10-30T00:42:40;98905.41;;;14.28;100.00
141;BME280;65;48.778;9.160;2022-10-30T00:45:06;98902.22;;;14.35;100.00
141;BME280;65;48.778;9.160;2022-10-30T00:47:35;98901.16;;;14.38;100.00
141;BME280;65;48.778;9.160;2022-10-30T00:50:05;98907.34;;;14.38;100.00
141;BME280;65;48.778;9.160;2022-10-30T00:52:37;98907.06;;;14.43;100.00
141;BME280;65;48.778;9.160;2022-10-30T00:55:10;98902.22;;;14.35;100.00
141;BME280;65;48.778;9.160;2022-10-30T00:57:37;98899.88;;;14.31;100.00
141;BME280;65;48.778;9.160;2022-10-30T01:00:05;98902.63;;;14.29;100.00
141;BME280;65;48.778;9.160;2022-10-30T01:02:32;98899.31;;;14.25;100.00
141;BME280;65;48.778;9.160;2022-10-30T01:04:58;98900.59;;;14.20;100.00
141;BME280;65;48.778;9.160;2022-10-30T01:07:24;98901.84;;;14.14;100.00
141;BME280;65;48.778;9.160;2022-10-30T01:09:50;98906.63;;;14.09;100.00
141;BME280;65;48.778;9.160;2022-10-30T01:12:15;98915.75;;;14.05;100.00
141;BME280;65;48.778;9.160;2022-10-30T01:14:49;98914.25;;;14.01;100.00
141;BME280;65;48.778;9.160;2022-10-30T01:20:06;98924.34;;;13.96;100.00
141;BME280;65;48.778;9.160;2022-10-30T01:28:27;98921.47;;;13.99;100.00
141;BME280;65;48.778;9.160;2022-10-30T01:34:15;98919.41;;;13.90;100.00
141;BME280;65;48.778;9.160;2022-10-30T01:39:40;98912.97;;;13.80;100.00
141;BME280;65;48.778;9.160;2022-10-30T01:42:44;98909.75;;;13.75;100.00
141;BME280;65;48.778;9.160;2022-10-30T01:53:52;98898.97;;;13.64;100.00
141;BME280;65;48.778;9.160;2022-10-30T01:56:44;98895.47;;;13.63;100.00
141;BME280;65;48.778;9.160;2022-10-30T02:01:42;98899.72;;;13.66;100.00
141;BME280;65;48.778;9.160;2022-10-30T02:04:08;98890.59;;;13.70;100.00
141;BME280;65;48.778;9.160;2022-10-30T02:06:35;98895.06;;;13.69;100.00
141;BME280;65;48.778;9.160;2022-10-30T02:09:02;98892.41;;;13.69;100.00
141;BME280;65;48.778;9.160;2022-10-30T02:11:30;98885.38;;;13.68;100.00
141;BME280;65;48.778;9.160;2022-10-30T02:13:57;98877.41;;;13.68;100.00
141;BME280;65;48.778;9.160;2022-10-30T02:16:23;98878.28;;;13.69;100.00
141;BME280;65;48.778;9.160;2022-10-30T02:18:48;98882.63;;;13.70;100.00
141;BME280;65;48.778;9.160;2022-10-30T02:21:14;98876.38;;;13.71;100.00
141;BME280;65;48.778;9.160;2022-10-30T02:23:39;98881.69;;;13.71;100.00
141;BME280;65;48.778;9.160;2022-10-30T02:26:05;98879.97;;;13.70;100.00
141;BME280;65;48.778;9.160;2022-10-30T02:28:31;98872.00;;;13.70;100.00
141;BME280;65;48.778;9.160;2022-10-30T02:30:57;98872.00;;;13.70;100.00
141;BME280;65;48.778;9.160;2022-10-30T02:33:22;98881.78;;;13.69;100.00
141;BME280;65;48.778;9.160;2022-10-30T02:35:51;98876.28;;;13.72;100.00
141;BME280;65;48.778;9.160;2022-10-30T02:38:17;98870.66;;;13.77;100.00
141;BME280;65;48.778;9.160;2022-10-30T02:40:42;98874.16;;;13.77;100.00
141;BME280;65;48.778;9.160;2022-10-30T02:43:08;98875.22;;;13.75;100.00
141;BME280;65;48.778;9.160;2022-10-30T02:45:33;98879.03;;;13.71;100.00
141;BME280;65;48.778;9.160;2022-10-30T02:47:59;98873.16;;;13.66;100.00
141;BME280;65;48.778;9.160;2022-10-30T02:50:25;98874.13;;;13.65;100.00
141;BME280;65;48.778;9.160;2022-10-30T02:52:50;98871.47;;;13.65;100.00
141;BME280;65;48.778;9.160;2022-10-30T02:55:16;98866.44;;;13.60;100.00
141;BME280;65;48.778;9.160;2022-10-30T02:57:41;98866.53;;;13.58;100.00
141;BME280;65;48.778;9.160;2022-10-30T03:00:07;98875.56;;;13.56;100.00
141;BME280;65;48.778;9.160;2022-10-30T03:02:35;98868.00;;;13.50;100.00
141;BME280;65;48.778;9.160;2022-10-30T03:05:01;98865.63;;;13.45;100.00
141;BME280;65;48.778;9.160;2022-10-30T03:07:26;98871.22;;;13.41;100.00
141;BME280;65;48.778;9.160;2022-10-30T03:09:51;98869.81;;;13.35;100.00
141;BME280;65;48.778;9.160;2022-10-30T03:12:18;98871.06;;;13.29;100.00
141;BME280;65;48.778;9.160;2022-10-30T03:14:44;98879.09;;;13.28;100.00
141;BME280;65;48.778;9.160;2022-10-30T03:17:09;98873.22;;;13.23;100.00
141;BME280;65;48.778;9.160;2022-10-30T03:19:34;98868.97;;;13.20;100.00
141;BME280;65;48.778;9.160;2022-10-30T03:22:01;98870.06;;;13.16;100.00
141;BME280;65;48.778;9.160;2022-10-30T03:24:27;98873.03;;;13.12;100.00
141;BME280;65;48.778;9.160;2022-10-30T03:26:52;98877.66;;;13.08;100.00
141;BME280;65;48.778;9.160;2022-10-30T03:29:17;98877.75;;;13.07;100.00
141;BME280;65;48.778;9.160;2022-10-30T03:31:43;98885.16;;;13.02;100.00
141;BME280;65;48.778;9.160;2022-10-30T03:34:08;98880.81;;;13.01;100.00
141;BME280;65;48.778;9.160;2022-10-30T03:36:33;98884.59;;;12.96;100.00
141;BME280;65;48.778;9.160;2022-10-30T03:38:59;98890.00;;;12.95;100.00
141;BME280;65;48.778;9.160;2022-10-30T03:41:24;98882.31;;;12.90;100.00
141;BME280;65;48.778;9.160;2022-10-30T03:43:50;98887.91;;;12.86;100.00
141;BME280;65;48.778;9.160;2022-10-30T03:46:15;98892.66;;;12.81;100.00
141;BME280;65;48.778;9.160;2022-10-30T03:48:40;98891.22;;;12.75;100.00
141;BME280;65;48.778;9.160;2022-10-30T03:51:06;98895.91;;;12.70;100.00
141;BME280;65;48.778;9.160;2022-10-30T03:53:31;98903.13;;;12.68;100.00
141;BME280;65;48.778;9.160;2022-10-30T03:55:58;98893.72;;;12.62;100.00
141;BME280;65;48.778;9.160;2022-10-30T03:58:25;98901.09;;;12.57;100.00
141;BME280;65;48.778;9.160;2022-10-30T04:00:50;98900.34;;;12.55;100.00
141;BME280;65;48.778;9.160;2022-10-30T04:03:15;98902.25;;;12.53;100.00
141;BME280;65;48.778;9.160;2022-10-30T04:05:41;98899.69;;;12.52;100.00
141;BME280;65;48.778;9.160;2022-10-30T04:08:11;98893.63;;;12.50;100.00
141;BME280;65;48.778;9.160;2022-10-30T04:10:41;98892.94;;;12.46;100.00
141;BME280;65;48.778;9.160;2022-10-30T04:13:06;98897.59;;;12.43;100.00
141;BME280;65;48.778;9.160;2022-10-30T04:15:32;98893.41;;;12.39;100.00
141;BME280;65;48.778;9.160;2022-10-30T04:17:58;98897.75;;;12.40;100.00
141;BME280;65;48.778;9.160;2022-10-30T04:20:25;98904.78;;;12.41;100.00
141;BME280;65;48.778;9.160;2022-10-30T04:23:01;98895.97;;;12.40;100.00
141;BME280;65;48.778;9.160;2022-10-30T04:25:27;98894.34;;;12.38;100.00
141;BME280;65;48.778;9.160;2022-10-30T04:27:53;98892.75;;;12.35;100.00
141;BME280;65;48.778;9.160;2022-10-30T04:30:20;98897.28;;;12.33;100.00
141;BME280;65;48.778;9.160;2022-10-30T04:32:55;98900.00;;;12.31;100.00
141;BME280;65;48.778;9.160;2022-10-30T04:35:24;98901.72;;;12.32;100.00
141;BME280;65;48.778;9.160;2022-10-30T04:40:23;98902.09;;;12.26;100.00
141;BME280;65;48.778;9.160;2022-10-30T04:42:49;98903.31;;;12.21;100.00
141;BME280;65;48.778;9.160;2022-10-30T04:45:15;98899.03;;;12.18;100.00
141;BME280;65;48.778;9.160;2022-10-30T04:47:40;98901.91;;;12.14;100.00
141;BME280;65;48.778;9.160;2022-10-30T04:50:06;98898.59;;;12.10;100.00
141;BME280;65;48.778;9.160;2022-10-30T04:52:31;98894.31;;;12.08;100.00
141;BME280;65;48.778;9.160;2022-10-30T04:54:57;98889.13;;;12.06;100.00
141;BME280;65;48.778;9.160;2022-10-30T04:57:22;98884.84;;;12.03;100.00
141;BME280;65;48.778;9.160;2022-10-30T04:59:48;98896.31;;;12.04;100.00
141;BME280;65;48.778;9.160;2022-10-30T05:02:13;98895.53;;;12.02;100.00
141;BME280;65;48.778;9.160;2022-10-30T05:04:38;98892.63;;;12.07;100.00
141;BME280;65;48.778;9.160;2022-10-30T05:07:04;98886.56;;;12.04;100.00
141;BME280;65;48.778;9.160;2022-10-30T05:09:29;98887.31;;;12.07;100.00
141;BME280;65;48.778;9.160;2022-10-30T05:11:55;98887.59;;;12.02;100.00
141;BME280;65;48.778;9.160;2022-10-30T05:14:20;98880.41;;;12.04;100.00
141;BME280;65;48.778;9.160;2022-10-30T05:17:11;98883.31;;;11.99;100.00
141;BME280;65;48.778;9.160;2022-10-30T05:19:36;98880.84;;;11.96;100.00
141;BME280;65;48.778;9.160;2022-10-30T05:22:02;98882.66;;;11.96;100.00
141;BME280;65;48.778;9.160;2022-10-30T05:24:27;98877.53;;;11.93;100.00
141;BME280;65;48.778;9.160;2022-10-30T05:26:52;98876.75;;;11.91;100.00
141;BME280;65;48.778;9.160;2022-10-30T05:29:17;98866.44;;;11.86;100.00
141;BME280;65;48.778;9.160;2022-10-30T05:31:46;98866.53;;;11.85;100.00
141;BME280;65;48.778;9.160;2022-10-30T05:34:11;98879.84;;;11.83;100.00
141;BME280;65;48.778;9.160;2022-10-30T05:36:37;98878.22;;;11.81;100.00
141;BME280;65;48.778;9.160;2022-10-30T05:39:02;98880.13;;;11.79;100.00
141;BME280;65;48.778;9.160;2022-10-30T05:41:28;98878.31;;;11.79;100.00
141;BME280;65;48.778;9.160;2022-10-30T05:43:53;98885.47;;;11.77;100.00
141;BME280;65;48.778;9.160;2022-10-30T05:46:19;98888.38;;;11.72;100.00
141;BME280;65;48.778;9.160;2022-10-30T05:48:44;98885.72;;;11.72;100.00
141;BME280;65;48.778;9.160;2022-10-30T05:51:09;98886.84;;;11.68;100.00
141;BME280;65;48.778;9.160;2022-10-30T05:53:35;98878.91;;;11.68;100.00
141;BME280;65;48.778;9.160;2022-10-30T05:56:00;98878.91;;;11.68;100.00
141;BME280;65;48.778;9.160;2022-10-30T05:58:25;98878.13;;;11.66;100.00
141;BME280;65;48.778;9.160;2022-10-30T06:00:51;98886.09;;;11.66;100.00
141;BME280;65;48.778;9.160;2022-10-30T06:03:17;98885.31;;;11.64;100.00
141;BME280;65;48.778;9.160;2022-10-30T06:05:46;98890.59;;;11.64;100.00
141;BME280;65;48.778;9.160;2022-10-30T06:08:12;98886.25;;;11.63;100.00
141;BME280;65;48.778;9.160;2022-10-30T06:10:40;98891.53;;;11.63;100.00
141;BME280;65;48.778;9.160;2022-10-30T06:13:05;98888.91;;;11.63;100.00
141;BME280;65;48.778;9.160;2022-10-30T06:15:32;98895.91;;;11.64;100.00
141;BME280;65;48.778;9.160;2022-10-30T06:17:58;98883.59;;;11.63;100.00
141;BME280;65;48.778;9.160;2022-10-30T06:20:26;98900.16;;;11.67;100.00
141;BME280;65;48.778;9.160;2022-10-30T06:23:00;98890.25;;;11.70;100.00
141;BME280;65;48.778;9.160;2022-10-30T06:25:28;98891.88;;;11.73;100.00
141;BME280;65;48.778;9.160;2022-10-30T06:27:54;98894.53;;;11.73;100.00
141;BME280;65;48.778;9.160;2022-10-30T06:30:20;98901.53;;;11.74;100.00
141;BME280;65;48.778;9.160;2022-10-30T06:32:46;98892.56;;;11.77;100.00
141;BME280;65;48.778;9.160;2022-10-30T06:35:11;98897.72;;;11.80;100.00
141;BME280;65;48.778;9.160;2022-10-30T06:37:37;98896.50;;;11.85;100.00
141;BME280;65;48.778;9.160;2022-10-30T06:40:06;98905.13;;;11.89;100.00
141;BME280;65;48.778;9.160;2022-10-30T06:42:31;98897.88;;;11.92;100.00
141;BME280;65;48.778;9.160;2022-10-30T06:44:56;98892.22;;;11.98;100.00
141;BME280;65;48.778;9.160;2022-10-30T06:47:22;98889.13;;;12.06;100.00
141;BME280;65;48.778;9.160;2022-10-30T06:49:47;98894.06;;;12.12;100.00
141;BME280;65;48.778;9.160;2022-10-30T06:52:12;98899.97;;;12.17;100.00
141;BME280;65;48.778;9.160;2022-10-30T06:54:38;98902.25;;;12.23;100.00
141;BME280;65;48.778;9.160;2022-10-30T06:57:03;98900.97;;;12.30;100.00
141;BME280;65;48.778;9.160;2022-10-30T06:59:28;98897.94;;;12.37;100.00
141;BME280;65;48.778;9.160;2022-10-30T07:01:54;98896.81;;;12.41;100.00
141;BME280;65;48.778;9.160;2022-10-30T07:04:20;98903.28;;;12.51;100.00
141;BME280;65;48.778;9.160;2022-10-30T07:06:46;98900.25;;;12.57;100.00
141;BME280;65;48.778;9.160;2022-10-30T07:09:11;98902.63;;;12.61;100.00
141;BME280;65;48.778;9.160;2022-10-30T07:11:36;98904.16;;;12.65;100.00
141;BME280;65;48.778;9.160;2022-10-30T07:14:04;98899.19;;;12.75;100.00
141;BME280;65;48.778;9.160;2022-10-30T07:16:29;98896.06;;;12.83;100.00
141;BME280;65;48.778;9.160;2022-10-30T07:18:54;98903.91;;;12.84;100.00
141;BME280;65;48.778;9.160;2022-10-30T07:21:20;98905.63;;;12.99;100.00
141;BME280;65;48.778;9.160;2022-10-30T07:23:45;98903.25;;;13.09;100.00
141;BME280;65;48.778;9.160;2022-10-30T07:26:11;98909.03;;;13.16;100.00
141;BME280;65;48.778;9.160;2022-10-30T07:28:36;98911.25;;;13.23;100.00
141;BME280;65;48.778;9.160;2022-10-30T07:31:01;98909.94;;;13.31;100.00
141;BME280;65;48.778;9.160;2022-10-30T07:33:27;98909.75;;;13.34;100.00
141;BME280;65;48.778;9.160;2022-10-30T07:35:52;98911.16;;;13.39;100.00
141;BME280;65;48.778;9.160;2022-10-30T07:38:17;98917.41;;;13.52;100.00
141;BME280;65;48.778;9.160;2022-10-30T07:40:43;98909.78;;;13.60;100.00
141;BME280;65;48.778;9.160;2022-10-30T07:43:09;98906.09;;;13.63;100.00
141;BME280;65;48.778;9.160;2022-10-30T07:45:37;98910.06;;;13.70;100.00
141;BME280;65;48.778;9.160;2022-10-30T07:48:03;98903.69;;;13.73;100.00
141;BME280;65;48.778;9.160;2022-10-30T07:50:29;98907.09;;;13.89;100.00
141;BME280;65;48.778;9.160;2022-10-30T07:52:54;98916.25;;;13.98;100.00
141;BME280;65;48.778;9.160;2022-10-30T07:55:19;98908.84;;;14.03;100.00
141;BME280;65;48.778;9.160;2022-10-30T07:57:45;98903.66;;;14.14;100.00
141;BME280;65;48.778;9.160;2022-10-30T08:00:12;98901.00;;;14.14;100.00
141;BME280;65;48.778;9.160;2022-10-30T08:02:38;98908.47;;;14.21;100.00
141;BME280;65;48.778;9.160;2022-10-30T08:05:04;98907.31;;;14.25;100.00
141;BME280;65;48.778;9.160;2022-10-30T08:07:50;98909.44;;;14.33;100.00
141;BME280;65;48.778;9.160;2022-10-30T08:10:16;98906.94;;;14.44;100.00
141;BME280;65;48.778;9.160;2022-10-30T08:12:41;98920.34;;;14.43;100.00
141;BME280;65;48.778;9.160;2022-10-30T08:15:09;98917.41;;;14.47;100.00
141;BME280;65;48.778;9.160;2022-10-30T08:17:42;98907.53;;;14.62;100.00
141;BME280;65;48.778;9.160;2022-10-30T08:20:09;98911.59;;;14.68;100.00
141;BME280;65;48.778;9.160;2022-10-30T08:22:51;98915.75;;;14.72;100.00
141;BME280;65;48.778;9.160;2022-10-30T08:25:23;98919.56;;;14.80;100.00
141;BME280;65;48.778;9.160;2022-10-30T08:27:54;98917.66;;;14.82;100.00
141;BME280;65;48.778;9.160;2022-10-30T08:30:21;98907.97;;;14.94;98.40
141;BME280;65;48.778;9.160;2022-10-30T08:32:47;98914.91;;;14.97;97.69
141;BME280;65;48.778;9.160;2022-10-30T08:35:12;98908.97;;;15.06;98.77
141;BME280;65;48.778;9.160;2022-10-30T08:37:37;98907.88;;;15.08;99.42
141;BME280;65;48.778;9.160;2022-10-30T08:40:03;98912.47;;;15.19;96.23
141;BME280;65;48.778;9.160;2022-10-30T08:42:29;98906.59;;;15.27;97.26
141;BME280;65;48.778;9.160;2022-10-30T08:44:54;98908.50;;;15.37;96.32
141;BME280;65;48.778;9.160;2022-10-30T08:47:19;98906.00;;;15.47;93.38
141;BME280;65;48.778;9.160;2022-10-30T08:49:45;98902.50;;;15.59;96.39
141;BME280;65;48.778;9.160;2022-10-30T08:52:10;98905.03;;;15.73;93.07
141;BME280;65;48.778;9.160;2022-10-30T08:54:35;98908.63;;;15.85;94.44
141;BME280;65;48.778;9.160;2022-10-30T08:57:01;98906.47;;;15.90;95.05
141;BME280;65;48.778;9.160;2022-10-30T08:59:26;98902.88;;;16.02;91.28
141;BME280;65;48.778;9.160;2022-10-30T09:01:52;98903.91;;;16.12;90.25
141;BME280;65;48.778;9.160;2022-10-30T09:04:17;98901.66;;;16.19;90.63
141;BME280;65;48.778;9.160;2022-10-30T09:06:42;98904.38;;;16.30;92.16
141;BME280;65;48.778;9.160;2022-10-30T09:09:08;98908.00;;;16.29;91.11
141;BME280;65;48.778;9.160;2022-10-30T09:11:33;98904.53;;;16.40;89.86
141;BME280;65;48.778;9.160;2022-10-30T09:13:58;98904.31;;;16.43;89.40
141;BME280;65;48.778;9.160;2022-10-30T09:16:24;98902.97;;;16.49;88.53
141;BME280;65;48.778;9.160;2022-10-30T09:18:49;98898.28;;;16.63;87.40
141;BME280;65;48.778;9.160;2022-10-30T09:21:15;98906.41;;;16.62;86.83
141;BME280;65;48.778;9.160;2022-10-30T09:23:42;98901.38;;;16.70;84.52
141;BME280;65;48.778;9.160;2022-10-30T09:26:08;98899.84;;;16.79;83.06
141;BME280;65;48.778;9.160;2022-10-30T09:28:34;98903.00;;;16.84;84.63
141;BME280;65;48.778;9.160;2022-10-30T09:31:00;98902.75;;;16.87;83.30
141;BME280;65;48.778;9.160;2022-10-30T09:33:26;98908.13;;;16.98;81.83
141;BME280;65;48.778;9.160;2022-10-30T09:35:51;98913.47;;;17.09;87.51
141;BME280;65;48.778;9.160;2022-10-30T09:38:16;98913.34;;;17.11;81.76
141;BME280;65;48.778;9.160;2022-10-30T09:46:33;98914.81;;;17.26;85.41
141;BME280;65;48.778;9.160;2022-10-30T09:54:46;98919.31;;;17.70;78.80
141;BME280;65;48.778;9.160;2022-10-30T10:00:21;98917.84;;;17.88;77.06
141;BME280;65;48.778;9.160;2022-10-30T10:05:33;98905.88;;;18.15;77.76
141;BME280;65;48.778;9.160;2022-10-30T10:08:07;98907.69;;;18.14;78.89
141;BME280;65;48.778;9.160;2022-10-30T10:10:45;98911.34;;;18.13;80.29
141;BME280;65;48.778;9.160;2022-10-30T10:16:06;98908.78;;;18.44;75.87
141;BME280;65;48.778;9.160;2022-10-30T10:18:42;98907.06;;;18.54;75.30
141;BME280;65;48.778;9.160;2022-10-30T10:21:20;98906.66;;;18.58;76.82
141;BME280;65;48.778;9.160;2022-10-30T10:23:51;98910.81;;;18.62;77.46
141;BME280;65;48.778;9.160;2022-10-30T10:31:49;98905.06;;;18.88;76.90
141;BME280;65;48.778;9.160;2022-10-30T10:37:48;98909.97;;;19.34;76.64
141;BME280;65;48.778;9.160;2022-10-30T10:40:19;98903.22;;;19.40;74.25
141;BME280;65;48.778;9.160;2022-10-30T10:43:21;98903.75;;;19.34;76.93
141;BME280;65;48.778;9.160;2022-10-30T10:51:07;98888.13;;;19.69;73.79
141;BME280;65;48.778;9.160;2022-10-30T10:53:43;98884.06;;;19.75;71.71
141;BME280;65;48.778;9.160;2022-10-30T10:56:11;98888.47;;;19.95;70.60
141;BME280;65;48.778;9.160;2022-10-30T10:58:49;98883.38;;;20.02;69.56
141;BME280;65;48.778;9.160;2022-10-30T11:01:28;98878.16;;;20.10;70.13
141;BME280;65;48.778;9.160;2022-10-30T11:04:02;98876.63;;;20.17;69.22
141;BME280;65;48.778;9.160;2022-10-30T11:06:33;98869.44;;;20.27;69.11
141;BME280;65;48.778;9.160;2022-10-30T11:09:19;98877.81;;;20.43;68.45
141;BME280;65;48.778;9.160;2022-10-30T11:11:47;98869.03;;;20.41;68.80
141;BME280;65;48.778;9.160;2022-10-30T11:14:15;98879.19;;;20.38;68.13
141;BME280;65;48.778;9.160;2022-10-30T11:19:31;98865.06;;;20.55;66.09
141;BME280;65;48.778;9.160;2022-10-30T11:21:57;98878.50;;;20.55;68.63
141;BME280;65;48.778;9.160;2022-10-30T11:24:43;98867.63;;;20.57;66.34
141;BME280;65;48.778;9.160;2022-10-30T11:27:26;98860.78;;;20.72;65.91
141;BME280;65;48.778;9.160;2022-10-30T11:30:00;98861.34;;;20.75;67.58
141;BME280;65;48.778;9.160;2022-10-30T11:32:30;98865.56;;;20.97;63.39
141;BME280;65;48.778;9.160;2022-10-30T11:35:10;98857.03;;;21.11;63.89
141;BME280;65;48.778;9.160;2022-10-30T11:37:38;98862.97;;;21.15;63.35
141;BME280;65;48.778;9.160;2022-10-30T11:42:36;98861.91;;;21.35;62.27
141;BME280;65;48.778;9.160;2022-10-30T11:45:03;98858.34;;;21.44;61.78
141;BME280;65;48.778;9.160;2022-10-30T11:47:34;98855.91;;;21.51;63.17
141;BME280;65;48.778;9.160;2022-10-30T11:50:03;98859.59;;;21.50;63.30
141;BME280;65;48.778;9.160;2022-10-30T11:52:36;98851.78;;;21.57;64.08
141;BME280;65;48.778;9.160;2022-10-30T11:55:23;98856.22;;;21.48;66.49
141;BME280;65;48.778;9.160;2022-10-30T11:57:54;98853.22;;;21.51;66.03
141;BME280;65;48.778;9.160;2022-10-30T12:00:26;98855.63;;;21.54;65.56
141;BME280;65;48.778;9.160;2022-10-30T12:02:54;98853.47;;;21.58;66.28
141;BME280;65;48.778;9.160;2022-10-30T12:07:53;98852.72;;;21.65;65.70
141;BME280;65;48.778;9.160;2022-10-30T12:10:27;98840.66;;;21.69;67.18
141;BME280;65;48.778;9.160;2022-10-30T12:12:53;98844.34;;;21.68;66.04
141;BME280;65;48.778;9.160;2022-10-30T12:15:20;98843.72;;;21.74;66.84
141;BME280;65;48.778;9.160;2022-10-30T12:18:00;98848.50;;;21.81;66.79
141;BME280;65;48.778;9.160;2022-10-30T12:20:27;98846.50;;;21.83;67.66
141;BME280;65;48.778;9.160;2022-10-30T12:22:53;98838.53;;;21.91;65.06
141;BME280;65;48.778;9.160;2022-10-30T12:25:28;98835.38;;;21.95;67.68
141;BME280;65;48.778;9.160;2022-10-30T12:28:18;98828.72;;;22.17;64.70
141;BME280;65;48.778;9.160;2022-10-30T12:34:03;98835.78;;;22.36;67.82
141;BME280;65;48.778;9.160;2022-10-30T12:36:34;98826.03;;;22.35;71.05
141;BME280;65;48.778;9.160;2022-10-30T12:39:10;98826.63;;;22.47;65.60
141;BME280;65;48.778;9.160;2022-10-30T12:41:44;98824.63;;;22.49;65.43
141;BME280;65;48.778;9.160;2022-10-30T12:44:21;98828.94;;;22.41;67.43
141;BME280;65;48.778;9.160;2022-10-30T12:46:59;98824.09;;;22.45;71.16
141;BME280;65;48.778;9.160;2022-10-30T12:52:00;98826.94;;;22.44;70.11
141;BME280;65;48.778;9.160;2022-10-30T13:01:37;98820.38;;;22.46;66.55
141;BME280;65;48.778;9.160;2022-10-30T13:04:35;98814.84;;;22.48;66.84
141;BME280;65;48.778;9.160;2022-10-30T13:07:37;98809.44;;;22.48;70.27
141;BME280;65;48.778;9.160;2022-10-30T13:11:01;98805.75;;;22.49;67.68
141;BME280;65;48.778;9.160;2022-10-30T13:13:09;98810.25;;;22.22;69.64
141;BME280;65;48.778;9.160;2022-10-30T13:15:47;98808.09;;;22.26;68.96
141;BME280;65;48.778;9.160;2022-10-30T13:18:16;98808.66;;;22.12;71.21
141;BME280;65;48.778;9.160;2022-10-30T13:20:51;98802.50;;;22.19;71.23
141;BME280;65;48.778;9.160;2022-10-30T13:23:26;98800.97;;;22.17;70.79
141;BME280;65;48.778;9.160;2022-10-30T13:28:42;98802.50;;;22.19;69.03
141;BME280;65;48.778;9.160;2022-10-30T13:31:19;98798.81;;;22.20;69.62
141;BME280;65;48.778;9.160;2022-10-30T13:34:08;98806.34;;;22.17;69.74
141;BME280;65;48.778;9.160;2022-10-30T13:36:45;98801.66;;;22.19;69.64
141;BME280;65;48.778;9.160;2022-10-30T13:39:29;98806.50;;;22.15;70.99
141;BME280;65;48.778;9.160;2022-10-30T13:47:31;98799.28;;;22.16;73.85
141;BME280;65;48.778;9.160;2022-10-30T13:53:02;98802.41;;;22.29;71.79
141;BME280;65;48.778;9.160;2022-10-30T13:55:34;98801.41;;;22.30;67.45
141;BME280;65;48.778;9.160;2022-10-30T14:10:57;98801.44;;;22.12;72.73
141;BME280;65;48.778;9.160;2022-10-30T14:15:55;98794.56;;;22.00;72.40
141;BME280;65;48.778;9.160;2022-10-30T14:18:30;98793.16;;;21.78;73.63
141;BME280;65;48.778;9.160;2022-10-30T14:20:57;98797.72;;;21.50;75.07
141;BME280;65;48.778;9.160;2022-10-30T14:23:36;98794.34;;;21.48;76.39
141;BME280;65;48.778;9.160;2022-10-30T14:28:28;98789.13;;;21.64;75.89
141;BME280;65;48.778;9.160;2022-10-30T14:31:14;98786.06;;;21.32;76.92
141;BME280;65;48.778;9.160;2022-10-30T14:38:54;98793.31;;;20.94;80.46
141;BME280;65;48.778;9.160;2022-10-30T14:58:32;98805.97;;;19.68;92.75
141;BME280;65;48.778;9.160;2022-10-30T15:01:23;98808.53;;;19.70;91.62
141;BME280;65;48.778;9.160;2022-10-30T15:07:26;98812.78;;;19.42;95.88
141;BME280;65;48.778;9.160;2022-10-30T15:10:18;98815.16;;;19.35;95.74
141;BME280;65;48.778;9.160;2022-10-30T15:15:26;98818.56;;;19.37;97.55
141;BME280;65;48.778;9.160;2022-10-30T15:17:54;98814.91;;;19.38;97.81
141;BME280;65;48.778;9.160;2022-10-30T15:20:30;98814.44;;;19.23;98.23
141;BME280;65;48.778;9.160;2022-10-30T15:23:04;98818.66;;;19.16;98.40
141;BME280;65;48.778;9.160;2022-10-30T15:25:45;98811.44;;;19.17;97.39
141;BME280;65;48.778;9.160;2022-10-30T15:28:18;98811.72;;;19.14;97.33
141;BME280;65;48.778;9.160;2022-10-30T15:31:02;98819.63;;;19.15;97.04
141;BME280;65;48.778;9.160;2022-10-30T15:33:28;98824.41;;;19.12;97.47
141;BME280;65;48.778;9.160;2022-10-30T15:35:57;98822.66;;;19.01;97.58
141;BME280;65;48.778;9.160;2022-10-30T15:38:23;98828.09;;;18.90;98.38
141;BME280;65;48.778;9.160;2022-10-30T15:40:49;98825.94;;;18.84;98.39
141;BME280;65;48.778;9.160;2022-10-30T15:43:22;98829.25;;;18.67;99.86
141;BME280;65;48.778;9.160;2022-10-30T15:45:52;98825.50;;;18.58;100.00
141;BME280;65;48.778;9.160;2022-10-30T15:48:25;98826.53;;;18.46;100.00
141;BME280;65;48.778;9.160;2022-10-30T15:51:00;98829.72;;;18.19;100.00
141;BME280;65;48.778;9.160;2022-10-30T15:56:15;98825.00;;;17.79;100.00
141;BME280;65;48.778;9.160;2022-10-30T15:58:41;98821.59;;;17.66;100.00
141;BME280;65;48.778;9.160;2022-10-30T16:01:23;98822.59;;;17.54;100.00
141;BME280;65;48.778;9.160;2022-10-30T16:03:52;98821.91;;;17.41;100.00
141;BME280;65;48.778;9.160;2022-10-30T16:06:19;98818.25;;;17.30;100.00
141;BME280;65;48.778;9.160;2022-10-30T16:08:47;98828.22;;;17.17;100.00
141;BME280;65;48.778;9.160;2022-10-30T16:11:22;98824.59;;;17.07;100.00
141;BME280;65;48.778;9.160;2022-10-30T16:13:49;98826.06;;;17.00;100.00
141;BME280;65;48.778;9.160;2022-10-30T16:16:29;98825.34;;;16.98;100.00
141;BME280;65;48.778;9.160;2022-10-30T16:19:00;98827.75;;;16.90;100.00
141;BME280;65;48.778;9.160;2022-10-30T16:21:27;98831.88;;;16.83;100.00
141;BME280;65;48.778;9.160;2022-10-30T16:23:58;98832.56;;;16.73;100.00